Time;durP1;ratioP1;P1;durP2;ratioP2;P2;SDS_P1;SDS_P2;PMS_P1;PMS_P2;Temp;Humidity;BMP_temperature;BMP_pressure;BME280_temperature;BME280_humidity;BME280_pressure;Samples;Min_cycle;Max_cycle;Signal;HPM_P1;HPM_P2
2021/11/13 00:01:05;;;;;;;;;28.33;23.67;;;;;13.02;69.64;101147.00;4970775;28;45554;-76
2021/11/13 00:03:31;;;;;;;;;31.00;27.67;;;;;13.10;69.32;101143.78;4974253;28;48194;-80
2021/11/13 00:05:56;;;;;;;;;23.67;23.67;;;;;13.10;69.31;101133.22;4968850;28;45487;-74
2021/11/13 00:08:21;;;;;;;;;31.67;25.67;;;;;13.09;69.19;101137.69;4970489;28;47467;-76
2021/11/13 00:10:47;;;;;;;;;36.00;28.33;;;;;12.98;69.40;101135.84;4971411;28;45476;-74
2021/11/13 00:13:13;;;;;;;;;23.00;20.00;;;;;12.90;69.85;101130.34;4973253;28;47051;-77
2021/11/13 00:15:38;;;;;;;;;25.67;21.67;;;;;12.89;69.61;101115.47;4993583;27;45478;-77
2021/11/13 00:18:04;;;;;;;;;23.67;23.00;;;;;12.90;69.72;101116.34;4975758;28;45695;-79
2021/11/13 00:20:30;;;;;;;;;21.00;17.33;;;;;12.98;69.75;101124.47;4972387;28;45325;-76
2021/11/13 00:22:57;;;;;;;;;23.33;21.33;;;;;12.99;69.57;101124.34;4974929;28;45440;-78
2021/11/13 00:25:24;;;;;;;;;26.00;20.67;;;;;12.99;69.21;101121.72;4976249;28;45476;-78
2021/11/13 00:27:51;;;;;;;;;26.33;23.33;;;;;12.98;69.66;101117.41;4978978;28;45408;-77
2021/11/13 00:30:16;;;;;;;;;24.67;22.33;;;;;12.98;69.54;101111.28;4970575;28;45626;-73
2021/11/13 00:32:42;;;;;;;;;28.33;24.33;;;;;12.98;69.74;101117.41;4964618;28;45473;-73
2021/11/13 00:35:08;;;;;;;;;30.00;24.00;;;;;12.93;69.63;101109.00;4964890;28;45525;-72
2021/11/13 00:37:34;;;;;;;;;33.33;23.33;;;;;12.89;69.54;101102.31;4966862;28;45492;-74
2021/11/13 00:40:00;;;;;;;;;28.33;24.33;;;;;12.87;69.63;101120.06;4965412;28;45432;-77
2021/11/13 00:42:26;;;;;;;;;28.33;24.00;;;;;12.85;69.85;101119.31;4956868;28;45901;-83
2021/11/13 00:44:51;;;;;;;;;22.67;20.00;;;;;12.85;69.83;101114.88;4960616;28;45400;-76
2021/11/13 00:47:17;;;;;;;;;31.67;23.33;;;;;12.86;69.93;101118.38;4965701;28;45630;-76
2021/11/13 00:49:43;;;;;;;;;26.67;20.00;;;;;12.84;70.30;101118.50;4961836;28;45717;-76
2021/11/13 00:52:08;;;;;;;;;25.00;23.33;;;;;12.84;70.04;101115.84;4965153;28;45582;-74
2021/11/13 00:54:35;;;;;;;;;27.67;20.67;;;;;12.86;69.92;101115.72;4968656;28;45467;-74
2021/11/13 00:57:01;;;;;;;;;32.67;25.00;;;;;12.86;70.17;101123.66;4969194;28;45402;-76
2021/11/13 00:59:27;;;;;;;;;25.33;21.00;;;;;12.84;70.27;101115.00;4969644;28;45482;-77
2021/11/13 01:01:52;;;;;;;;;21.67;20.00;;;;;12.86;69.97;101124.47;4964855;28;45430;-73
2021/11/13 01:04:18;;;;;;;;;28.67;22.67;;;;;12.87;70.03;101117.41;4966054;28;45454;-79
2021/11/13 01:06:44;;;;;;;;;20.00;20.00;;;;;12.91;69.70;101108.31;4969669;28;45456;-77
2021/11/13 01:09:10;;;;;;;;;31.33;26.67;;;;;13.02;69.80;101118.00;4972227;28;45325;-77
2021/11/13 01:11:36;;;;;;;;;34.67;26.67;;;;;12.99;69.83;101116.44;4973099;28;45419;-82
2021/11/13 01:14:01;;;;;;;;;27.33;23.33;;;;;13.00;69.99;101117.28;4966314;28;45399;-77
2021/11/13 01:16:27;;;;;;;;;28.33;23.33;;;;;13.00;69.88;101107.59;4986498;28;45443;-79
2021/11/13 01:18:54;;;;;;;;;24.67;20.33;;;;;13.03;69.85;101104.69;4976460;28;45455;-85
2021/11/13 01:21:20;;;;;;;;;29.67;27.00;;;;;13.09;69.66;101102.53;4981837;28;47320;-80
2021/11/13 01:23:46;;;;;;;;;28.33;25.00;;;;;13.11;69.56;101111.19;4982408;28;44805;-81
2021/11/13 01:26:11;;;;;;;;;35.00;22.00;;;;;13.04;69.61;101114.28;4976015;28;45249;-81
2021/11/13 01:28:37;;;;;;;;;32.67;26.00;;;;;13.04;69.79;101103.75;4978592;28;44940;-83
2021/11/13 01:31:06;;;;;;;;;31.00;25.67;;;;;13.06;69.45;101108.88;4975121;28;46088;-78
2021/11/13 01:33:32;;;;;;;;;31.67;26.67;;;;;13.07;69.57;101117.66;4972351;28;45595;-79
2021/11/13 01:35:59;;;;;;;;;27.33;24.33;;;;;13.04;69.73;101113.47;4973664;28;45364;-80
2021/11/13 01:38:25;;;;;;;;;25.00;22.00;;;;;13.00;69.65;101118.13;4969940;28;45442;-79
2021/11/13 01:40:51;;;;;;;;;25.00;20.00;;;;;13.00;69.88;101123.41;4973079;28;46152;-78
2021/11/13 01:43:16;;;;;;;;;30.33;24.00;;;;;13.00;69.87;101118.13;4981263;28;44829;-82
2021/11/13 01:45:42;;;;;;;;;40.33;23.33;;;;;12.99;69.90;101124.34;4973538;28;45357;-79
2021/11/13 01:48:07;;;;;;;;;23.00;18.33;;;;;12.95;70.19;101119.47;4972180;28;47113;-79
2021/11/13 01:50:40;;;;;;;;;37.33;29.00;;;;;12.88;70.15;101119.06;4970968;28;45492;-76
2021/11/13 01:53:06;;;;;;;;;26.00;25.67;;;;;12.85;70.71;101119.31;4976560;28;45382;-78
2021/11/13 01:55:36;;;;;;;;;26.67;23.00;;;;;12.80;70.63;101116.19;4972083;28;45549;-70
2021/11/13 01:58:04;;;;;;;;;26.00;21.67;;;;;12.88;70.65;101104.13;4972614;28;45312;-69
2021/11/13 02:00:36;;;;;;;;;24.67;21.33;;;;;13.02;70.48;101099.53;4973190;28;46282;-70
2021/11/13 02:03:03;;;;;;;;;34.33;25.33;;;;;12.99;70.44;101108.53;4974418;28;46742;-69
2021/11/13 02:05:29;;;;;;;;;30.00;23.67;;;;;12.92;70.51;101104.72;4976512;28;45338;-71
2021/11/13 02:07:55;;;;;;;;;27.00;22.67;;;;;12.90;70.88;101098.72;4974009;28;45447;-69
2021/11/13 02:10:25;;;;;;;;;28.33;23.33;;;;;12.87;70.61;101102.44;4974313;28;47401;-71
2021/11/13 02:12:51;;;;;;;;;29.33;23.33;;;;;12.94;70.83;101097.50;4973810;28;45466;-71
2021/11/13 02:15:16;;;;;;;;;26.67;22.33;;;;;12.87;70.66;101094.50;4974391;28;45415;-70
2021/11/13 02:17:42;;;;;;;;;22.00;19.00;;;;;12.80;70.62;101100.38;4976564;28;45347;-73
2021/11/13 02:20:31;;;;;;;;;23.33;21.67;;;;;12.73;70.85;101089.47;4980091;28;45342;-71
2021/11/13 02:23:03;;;;;;;;;25.00;17.67;;;;;12.90;70.62;101090.81;4977288;28;45596;-70
2021/11/13 02:25:31;;;;;;;;;26.67;23.33;;;;;12.88;70.61;101096.19;4974271;28;45325;-70
2021/11/13 02:27:57;;;;;;;;;26.00;21.00;;;;;12.80;70.80;101095.13;4998376;27;45996;-72
2021/11/13 02:30:23;;;;;;;;;24.33;20.67;;;;;12.80;70.97;101106.50;4973043;28;47181;-70
2021/11/13 02:32:50;;;;;;;;;23.33;22.33;;;;;12.71;70.78;101113.34;4976607;28;45292;-70
2021/11/13 02:35:17;;;;;;;;;22.33;19.00;;;;;12.65;71.60;101094.50;4975877;28;45328;-71
2021/11/13 02:37:45;;;;;;;;;19.00;16.00;;;;;12.63;70.86;101086.72;4972916;28;45488;-72
2021/11/13 02:40:11;;;;;;;;;17.67;15.00;;;;;12.64;71.16;101079.66;4972654;28;46004;-70
2021/11/13 02:42:37;;;;;;;;;37.67;22.33;;;;;12.71;71.10;101086.97;4973411;28;45376;-71
2021/11/13 02:45:10;;;;;;;;;24.00;19.00;;;;;12.84;70.67;101086.84;4973328;28;45376;-71
2021/11/13 02:47:36;;;;;;;;;29.33;22.00;;;;;12.97;70.46;101086.75;4972101;28;45502;-71
2021/11/13 02:50:03;;;;;;;;;23.67;18.67;;;;;12.98;70.40;101083.13;4971588;28;45561;-70
2021/11/13 02:52:44;;;;;;;;;19.33;17.00;;;;;12.93;70.19;101077.38;4972043;28;45421;-70
2021/11/13 02:55:09;;;;;;;;;23.33;18.67;;;;;12.99;70.43;101090.06;4972774;28;45556;-72
2021/11/13 02:57:34;;;;;;;;;22.00;18.67;;;;;13.01;70.33;101093.44;4973577;28;45527;-71
2021/11/13 03:00:00;;;;;;;;;31.00;20.00;;;;;13.06;70.19;101084.31;4973627;28;47271;-70
2021/11/13 03:02:25;;;;;;;;;2.00;2.00;;;;;13.02;70.12;101084.53;4972487;28;45518;-71
2021/11/13 03:04:51;;;;;;;;;21.67;17.33;;;;;12.90;70.34;101080.25;4970115;28;45568;-71
2021/11/13 03:07:16;;;;;;;;;20.67;14.67;;;;;12.77;70.54;101080.38;4969998;28;45280;-70
2021/11/13 03:09:41;;;;;;;;;21.00;17.33;;;;;12.77;70.76;101075.09;4970106;28;45940;-71
2021/11/13 03:12:07;;;;;;;;;21.33;14.33;;;;;12.74;70.71;101079.75;4971976;28;45471;-71
2021/11/13 03:14:32;;;;;;;;;25.00;17.00;;;;;12.77;70.63;101082.19;4972035;28;45477;-72
2021/11/13 03:17:01;;;;;;;;;25.00;18.33;;;;;12.75;70.67;101081.44;4971551;28;45451;-71
2021/11/13 03:19:27;;;;;;;;;18.33;14.67;;;;;12.67;70.95;101079.41;4969371;28;46152;-71
2021/11/13 03:21:52;;;;;;;;;16.33;14.00;;;;;12.64;71.29;101077.03;4971682;28;45452;-71
2021/11/13 03:24:18;;;;;;;;;12.00;12.00;;;;;12.69;70.94;101070.44;4972275;28;45448;-70
2021/11/13 03:26:43;;;;;;;;;18.00;15.33;;;;;12.75;70.72;101077.00;4973608;28;45412;-71
2021/11/13 03:29:14;;;;;;;;;15.33;14.33;;;;;12.70;71.09;101080.03;4974634;28;45443;-69
2021/11/13 03:31:41;;;;;;;;;19.33;14.33;;;;;12.65;71.16;101081.31;4977624;28;45573;-71
2021/11/13 03:34:06;;;;;;;;;18.33;15.00;;;;;12.60;71.79;101075.56;4971082;28;45383;-70
2021/11/13 03:36:33;;;;;;;;;17.33;10.67;;;;;12.62;71.56;101066.56;4972567;28;45525;-71
2021/11/13 03:38:58;;;;;;;;;15.00;14.00;;;;;12.87;71.11;101075.22;4974582;28;45436;-71
2021/11/13 03:41:23;;;;;;;;;4.67;0.67;;;;;12.95;70.91;101080.72;4969959;28;45360;-71
2021/11/13 03:43:50;;;;;;;;;10.33;10.33;;;;;12.95;70.78;101082.53;4971377;28;45565;-71
2021/11/13 03:46:15;;;;;;;;;16.67;10.33;;;;;12.86;70.82;101074.38;4974161;28;45573;-70
2021/11/13 03:48:42;;;;;;;;;16.33;14.33;;;;;12.80;71.03;101080.13;4970565;28;46354;-71
2021/11/13 03:51:08;;;;;;;;;20.67;13.67;;;;;12.80;71.15;101074.03;4972336;28;45547;-70
2021/11/13 03:53:33;;;;;;;;;14.67;12.00;;;;;12.76;71.37;101069.97;4967049;28;45462;-70
2021/11/13 03:55:59;;;;;;;;;16.00;11.67;;;;;12.79;70.99;101067.06;4968880;28;45411;-68
2021/11/13 03:58:25;;;;;;;;;14.00;9.33;;;;;12.98;71.05;101072.56;4970402;28;47071;-69
2021/11/13 04:00:51;;;;;;;;;13.00;10.33;;;;;13.01;70.73;101080.25;4971645;28;45331;-69
2021/11/13 04:03:16;;;;;;;;;14.00;10.00;;;;;12.96;70.46;101089.47;4972381;28;45383;-71
2021/11/13 04:05:42;;;;;;;;;15.33;10.33;;;;;13.03;70.66;101080.97;4973162;28;45332;-71
2021/11/13 04:08:07;;;;;;;;;19.00;11.67;;;;;12.88;70.91;101079.53;4970690;28;46130;-70
2021/11/13 04:10:33;;;;;;;;;14.00;8.00;;;;;12.76;70.73;101086.59;4970804;28;45434;-70
2021/11/13 04:12:59;;;;;;;;;17.67;12.00;;;;;12.70;71.39;101085.28;4969359;28;45540;-71
2021/11/13 04:15:24;;;;;;;;;17.00;10.67;;;;;12.66;71.24;101086.50;4967969;28;45376;-70
2021/11/13 04:17:50;;;;;;;;;5.33;5.00;;;;;12.65;71.68;101091.84;4972203;28;47088;-70
2021/11/13 04:20:18;;;;;;;;;17.00;12.67;;;;;12.60;71.27;101086.97;4970429;28;45532;-69
2021/11/13 04:22:45;;;;;;;;;18.33;10.00;;;;;12.74;71.44;101096.44;4970944;28;45624;-69
2021/11/13 04:25:11;;;;;;;;;12.00;8.33;;;;;12.70;71.55;101090.56;4970899;28;45570;-71
2021/11/13 04:27:38;;;;;;;;;9.67;8.67;;;;;12.65;71.52;101097.97;4972166;28;45772;-70
2021/11/13 04:30:07;;;;;;;;;9.00;7.00;;;;;12.58;71.92;101090.66;4974708;28;45384;-70
2021/11/13 04:32:34;;;;;;;;;16.00;10.67;;;;;12.59;72.12;101090.53;4971060;28;45228;-69
2021/11/13 04:35:21;;;;;;;;;14.00;5.00;;;;;12.55;72.33;101081.19;4973660;28;45261;-70
2021/11/13 04:37:54;;;;;;;;;10.00;9.00;;;;;12.67;71.86;101082.88;4970578;28;45470;-71
2021/11/13 04:40:21;;;;;;;;;16.67;11.67;;;;;12.82;71.51;101088.75;4970741;28;45312;-71
2021/11/13 04:42:47;;;;;;;;;14.33;8.00;;;;;12.98;71.28;101083.13;4969345;28;45488;-70
2021/11/13 04:45:12;;;;;;;;;6.00;6.00;;;;;13.02;71.01;101083.72;4970876;28;45437;-71
2021/11/13 04:47:38;;;;;;;;;15.00;9.00;;;;;13.08;70.69;101080.59;4971946;28;45546;-71
2021/11/13 04:50:07;;;;;;;;;9.67;7.33;;;;;13.08;70.47;101085.03;4968997;28;45371;-70
2021/11/13 04:52:32;;;;;;;;;11.67;8.33;;;;;13.06;70.66;101068.50;4970345;28;45318;-70
2021/11/13 04:54:58;;;;;;;;;7.67;7.00;;;;;13.21;70.64;101070.75;4969221;28;45234;-70
2021/11/13 04:57:23;;;;;;;;;10.67;7.33;;;;;13.38;70.23;101067.78;4970137;28;46142;-71
2021/11/13 04:59:49;;;;;;;;;7.67;7.00;;;;;13.63;69.34;101071.88;4967761;28;45477;-70
2021/11/13 05:02:14;;;;;;;;;10.33;7.33;;;;;13.56;69.28;101068.03;4970328;28;45191;-71
2021/11/13 05:04:39;;;;;;;;;18.67;11.33;;;;;13.34;69.57;101072.41;4970226;28;45288;-70
2021/11/13 05:07:05;;;;;;;;;17.00;10.00;;;;;13.13;70.11;101069.66;4968885;28;47431;-72
2021/11/13 05:09:31;;;;;;;;;9.00;7.67;;;;;13.03;70.35;101074.84;4968850;28;45282;-71
2021/11/13 05:11:56;;;;;;;;;8.33;7.33;;;;;12.90;70.34;101077.63;4971328;28;45392;-70
2021/11/13 05:14:21;;;;;;;;;7.00;6.00;;;;;12.90;70.32;101082.06;4972979;28;45354;-70
2021/11/13 05:16:47;;;;;;;;;12.00;7.33;;;;;13.07;70.33;101086.84;4970435;28;46026;-70
2021/11/13 05:19:12;;;;;;;;;10.33;8.00;;;;;13.05;70.50;101091.38;4968538;28;45399;-71
2021/11/13 05:21:38;;;;;;;;;9.67;7.33;;;;;12.91;70.56;101081.94;4971369;28;45609;-72
2021/11/13 05:24:03;;;;;;;;;9.00;8.00;;;;;12.93;70.65;101080.00;4971288;28;45452;-70
2021/11/13 05:26:29;;;;;;;;;10.00;9.00;;;;;12.99;70.50;101087.44;4972323;28;46313;-71
2021/11/13 05:28:55;;;;;;;;;10.67;7.00;;;;;12.96;70.74;101085.06;4970277;28;45439;-72
2021/11/13 05:31:20;;;;;;;;;6.67;5.33;;;;;12.81;70.97;101092.34;4972549;28;45498;-70
2021/11/13 05:33:45;;;;;;;;;4.00;2.00;;;;;12.67;71.30;101085.50;4973161;28;45493;-71
2021/11/13 05:36:11;;;;;;;;;3.67;2.67;;;;;12.45;71.99;101091.59;4973513;28;47069;-71
2021/11/13 05:38:36;;;;;;;;;8.67;7.00;;;;;12.30;72.19;101090.13;4972736;28;45661;-70
2021/11/13 05:41:02;;;;;;;;;9.00;8.00;;;;;12.21;72.47;101099.59;4972538;28;45348;-71
2021/11/13 05:43:27;;;;;;;;;5.00;2.00;;;;;12.15;73.01;101100.88;4979894;28;45408;-70
2021/11/13 05:45:53;;;;;;;;;8.00;5.00;;;;;12.20;72.87;101100.53;4970794;28;46856;-69
2021/11/13 05:48:18;;;;;;;;;6.00;3.33;;;;;12.23;72.92;101099.47;4972019;28;45408;-70
2021/11/13 05:50:44;;;;;;;;;9.67;6.67;;;;;12.19;72.86;101096.22;4974659;28;45441;-70
2021/11/13 05:53:10;;;;;;;;;9.00;6.67;;;;;12.25;72.48;101089.63;4972597;28;45510;-70
2021/11/13 05:55:36;;;;;;;;;7.67;6.33;;;;;12.40;72.73;101082.38;4969777;28;46922;-70
2021/11/13 05:58:02;;;;;;;;;6.00;5.00;;;;;12.78;72.15;101097.00;4972682;28;45348;-71
2021/11/13 06:00:27;;;;;;;;;5.00;5.00;;;;;12.80;71.63;101095.13;4975483;28;45354;-71
2021/11/13 06:02:53;;;;;;;;;8.67;6.00;;;;;12.85;71.63;101092.97;4977671;28;45453;-70
2021/11/13 06:05:19;;;;;;;;;2.00;2.00;;;;;12.85;71.09;101087.69;4972416;28;46086;-71
2021/11/13 06:07:45;;;;;;;;;8.33;5.00;;;;;12.82;71.23;101088.75;4972393;28;45506;-70
2021/11/13 06:10:12;;;;;;;;;3.67;3.00;;;;;12.76;71.29;101088.41;4972510;28;45534;-70
2021/11/13 06:12:38;;;;;;;;;6.00;5.00;;;;;12.74;71.36;101087.69;4972748;28;45589;-72
2021/11/13 06:15:04;;;;;;;;;8.67;5.00;;;;;12.87;71.29;101085.78;4972925;28;45449;-71
2021/11/13 06:17:30;;;;;;;;;8.67;5.33;;;;;12.84;71.13;101086.84;4974301;28;45178;-70
2021/11/13 06:19:56;;;;;;;;;7.00;5.33;;;;;12.75;71.23;101092.81;4972938;28;45375;-70
2021/11/13 06:22:22;;;;;;;;;9.67;4.00;;;;;12.63;71.36;101099.88;4973481;28;45392;-71
2021/11/13 06:24:47;;;;;;;;;6.00;4.33;;;;;12.54;71.58;101098.81;4971827;28;46267;-71
2021/11/13 06:27:15;;;;;;;;;5.00;5.00;;;;;12.48;72.00;101093.16;4994662;28;45481;-70
2021/11/13 06:29:41;;;;;;;;;6.00;4.00;;;;;12.49;71.93;101097.47;4979507;28;45457;-70
2021/11/13 06:32:07;;;;;;;;;8.00;5.00;;;;;12.50;72.08;101107.88;4976990;28;45416;-71
2021/11/13 06:34:32;;;;;;;;;5.67;5.00;;;;;12.49;71.98;101102.75;4973301;28;46316;-70
2021/11/13 06:36:58;;;;;;;;;4.00;4.00;;;;;12.47;72.09;101102.88;4972799;28;45537;-70
2021/11/13 06:39:23;;;;;;;;;7.33;3.67;;;;;12.45;72.42;101106.56;4972955;28;45368;-70
2021/11/13 06:41:49;;;;;;;;;1.33;0.00;;;;;12.33;72.44;101110.97;4974166;28;45601;-70
2021/11/13 06:44:14;;;;;;;;;4.67;3.33;;;;;12.45;72.73;101106.56;4988125;28;47262;-71
2021/11/13 06:46:39;;;;;;;;;5.67;5.00;;;;;12.54;72.32;101111.13;4974201;28;45385;-71
2021/11/13 06:49:04;;;;;;;;;6.00;5.00;;;;;12.55;72.27;101118.09;4971307;28;45489;-72
2021/11/13 06:51:30;;;;;;;;;7.00;5.33;;;;;12.48;72.45;101116.88;4971493;27;45618;-69
2021/11/13 06:53:55;;;;;;;;;3.33;2.00;;;;;12.38;72.47;101119.38;4973914;28;45358;-69
2021/11/13 06:56:21;;;;;;;;;7.00;5.00;;;;;12.40;72.59;101112.19;4971428;28;45464;-70
2021/11/13 06:58:47;;;;;;;;;3.00;3.00;;;;;12.49;73.07;101123.81;4972272;28;45411;-70
2021/11/13 07:01:12;;;;;;;;;9.00;4.00;;;;;12.60;72.27;101128.25;4964445;28;45367;-69
2021/11/13 07:03:37;;;;;;;;;8.67;3.00;;;;;12.50;72.42;101120.25;4970993;28;45612;-70
2021/11/13 07:06:03;;;;;;;;;4.00;3.00;;;;;12.48;72.62;101132.69;4973697;28;45394;-71
2021/11/13 07:08:30;;;;;;;;;5.00;4.33;;;;;12.65;72.32;101128.75;4972404;28;45265;-70
2021/11/13 07:10:55;;;;;;;;;7.00;5.00;;;;;12.61;72.25;101135.22;4975088;28;45376;-71
2021/11/13 07:13:23;;;;;;;;;4.33;2.00;;;;;12.56;73.44;101146.13;4977010;28;46380;-70
2021/11/13 07:15:49;;;;;;;;;4.67;4.00;;;;;12.34;73.28;101126.66;4974583;28;45274;-71
2021/11/13 07:18:15;;;;;;;;;6.67;3.67;;;;;12.35;74.14;101144.16;4973820;28;45293;-71
2021/11/13 07:20:40;;;;;;;;;6.67;4.00;;;;;12.30;73.90;101148.94;4974408;28;45389;-70
2021/11/13 07:23:06;;;;;;;;;3.33;3.33;;;;;12.34;73.83;101155.66;4971682;28;46266;-69
2021/11/13 07:25:33;;;;;;;;;6.33;4.67;;;;;12.46;73.45;101161.78;4971716;28;45540;-71
2021/11/13 07:28:05;;;;;;;;;3.67;2.67;;;;;12.44;73.69;101165.50;4971572;28;45482;-70
2021/11/13 07:30:40;;;;;;;;;3.00;2.00;;;;;12.32;73.85;101169.88;4972014;28;45454;-70
2021/11/13 07:33:08;;;;;;;;;4.00;4.00;;;;;12.21;74.00;101174.16;4975249;28;46224;-70
2021/11/13 07:35:35;;;;;;;;;5.67;3.33;;;;;12.16;74.31;101167.56;4976375;28;45404;-70
2021/11/13 07:38:01;;;;;;;;;4.00;3.00;;;;;12.12;74.43;101174.00;4986521;28;45435;-71
2021/11/13 07:40:26;;;;;;;;;3.00;2.00;;;;;12.10;74.87;101179.38;4971543;28;45445;-70
2021/11/13 07:42:52;;;;;;;;;2.33;2.33;;;;;12.08;74.65;101177.81;4970111;28;46531;-70
2021/11/13 07:45:17;;;;;;;;;3.00;3.00;;;;;12.08;74.69;101175.16;4970298;28;45410;-70
2021/11/13 07:47:42;;;;;;;;;2.67;2.67;;;;;12.37;74.52;101176.47;4973033;28;45403;-70
2021/11/13 07:50:11;;;;;;;;;4.00;4.00;;;;;12.41;74.29;101184.19;4971470;28;45295;-68
2021/11/13 07:52:37;;;;;;;;;3.00;3.00;;;;;12.34;74.29;101187.25;4973918;28;45467;-71
2021/11/13 07:55:03;;;;;;;;;3.00;2.33;;;;;12.14;74.71;101193.16;4980048;28;45507;-71
2021/11/13 07:57:28;;;;;;;;;4.00;3.00;;;;;12.02;75.06;101195.72;4972135;28;49268;-71
2021/11/13 07:59:54;;;;;;;;;3.33;2.33;;;;;11.97;75.43;101203.13;4973780;28;45386;-69
2021/11/13 08:02:19;;;;;;;;;3.33;2.00;;;;;11.94;75.26;101195.41;4971741;28;46628;-71
2021/11/13 08:04:44;;;;;;;;;8.00;3.00;;;;;11.94;75.96;101207.75;4978728;28;47423;-71
2021/11/13 08:07:10;;;;;;;;;5.00;2.67;;;;;11.86;76.14;101206.50;4972291;28;45652;-70
2021/11/13 08:09:35;;;;;;;;;6.00;4.00;;;;;11.78;76.20;101213.25;4971961;28;45338;-70
2021/11/13 08:12:01;;;;;;;;;3.00;2.00;;;;;11.72;76.38;101210.13;4972718;28;46096;-71
2021/11/13 08:14:26;;;;;;;;;4.00;3.00;;;;;11.72;76.81;101209.28;4972379;28;45374;-70
2021/11/13 08:16:52;;;;;;;;;4.00;3.00;;;;;11.79;76.61;101214.94;4971446;28;45522;-71
2021/11/13 08:19:18;;;;;;;;;4.33;4.33;;;;;11.86;76.62;101221.47;4972281;28;45329;-71
2021/11/13 08:21:43;;;;;;;;;3.00;3.00;;;;;11.83;77.01;101217.28;4973994;28;45435;-72
2021/11/13 08:24:09;;;;;;;;;3.00;3.00;;;;;11.76;77.25;101216.00;4972986;28;45237;-70
2021/11/13 08:26:34;;;;;;;;;5.67;3.67;;;;;11.75;77.57;101208.22;4971256;28;45404;-72
2021/11/13 08:28:59;;;;;;;;;3.67;3.67;;;;;11.79;77.22;101207.88;4971615;28;45403;-71
2021/11/13 08:31:25;;;;;;;;;7.00;4.00;;;;;11.83;77.54;101213.78;4971764;28;45582;-71
2021/11/13 08:33:50;;;;;;;;;5.33;3.00;;;;;11.83;77.46;101216.41;4969681;28;45374;-69
2021/11/13 08:36:16;;;;;;;;;6.33;3.00;;;;;11.86;77.55;101216.22;4971682;28;45399;-70
2021/11/13 08:38:41;;;;;;;;;3.00;3.00;;;;;11.88;77.14;101215.16;4973585;28;45419;-70
2021/11/13 08:41:07;;;;;;;;;5.00;5.00;;;;;11.86;77.90;101216.22;4970168;28;45556;-70
2021/11/13 08:43:32;;;;;;;;;9.33;7.33;;;;;11.97;77.41;101221.53;4969550;28;46136;-72
2021/11/13 08:45:58;;;;;;;;;4.00;3.00;;;;;11.98;77.12;101209.25;4971425;28;45606;-71
2021/11/13 08:48:23;;;;;;;;;2.00;2.00;;;;;12.00;77.18;101213.44;4970940;28;45523;-71
2021/11/13 08:50:49;;;;;;;;;5.67;4.00;;;;;12.11;76.92;101215.28;4972772;28;45610;-70
2021/11/13 08:53:15;;;;;;;;;3.33;3.00;;;;;12.17;77.09;101221.91;4971598;28;45325;-68
2021/11/13 08:55:43;;;;;;;;;3.67;3.67;;;;;12.26;77.15;101218.59;4970105;28;45673;-68
2021/11/13 08:58:10;;;;;;;;;6.33;4.00;;;;;12.35;76.95;101223.19;4971059;28;45438;-68
2021/11/13 09:00:46;;;;;;;;;2.67;2.67;;;;;12.45;76.60;101222.50;4968756;28;45524;-69
2021/11/13 09:03:23;;;;;;;;;3.33;3.33;;;;;12.55;76.39;101220.88;4970186;28;45506;-72
2021/11/13 09:05:50;;;;;;;;;6.67;4.33;;;;;12.64;76.27;101227.25;4974459;28;45433;-69
2021/11/13 09:08:15;;;;;;;;;4.67;4.67;;;;;12.71;76.17;101217.91;4977083;28;45677;-67
2021/11/13 09:10:42;;;;;;;;;4.00;4.00;;;;;12.80;75.95;101216.38;4974401;28;45496;-68
2021/11/13 09:13:10;;;;;;;;;7.00;6.33;;;;;12.87;75.86;101209.69;4973644;28;45510;-68
2021/11/13 09:15:36;;;;;;;;;6.33;6.33;;;;;12.93;75.51;101221.56;4973713;28;46993;-69
2021/11/13 09:18:03;;;;;;;;;7.00;6.00;;;;;12.99;75.45;101224.56;4974227;28;45577;-68
2021/11/13 09:20:29;;;;;;;;;8.33;6.00;;;;;13.06;75.20;101218.81;4973471;28;45676;-68
2021/11/13 09:22:55;;;;;;;;;8.00;6.33;;;;;13.09;75.31;101210.66;4973004;28;45644;-68
2021/11/13 09:25:21;;;;;;;;;6.67;6.33;;;;;13.16;75.21;101211.88;4973260;28;45459;-68
2021/11/13 09:27:48;;;;;;;;;8.67;5.67;;;;;13.21;75.01;101204.47;4973365;28;45524;-69
2021/11/13 09:30:19;;;;;;;;;7.00;4.00;;;;;13.24;75.24;101203.38;4972753;28;46615;-67
2021/11/13 09:32:46;;;;;;;;;5.33;4.00;;;;;13.28;74.77;101207.44;4975015;28;45355;-68
2021/11/13 09:35:13;;;;;;;;;4.00;3.33;;;;;13.31;74.42;101205.41;4972234;28;45283;-67
2021/11/13 09:37:39;;;;;;;;;7.33;6.00;;;;;13.34;74.24;101205.16;4972534;28;45545;-67
2021/11/13 09:40:07;;;;;;;;;9.67;7.00;;;;;13.34;74.18;101209.63;4973580;28;47083;-68
2021/11/13 09:42:32;;;;;;;;;8.33;5.33;;;;;13.34;74.16;101218.34;4971336;28;45507;-68
2021/11/13 09:44:58;;;;;;;;;6.00;4.00;;;;;13.32;73.73;101215.03;4975043;28;45323;-69
2021/11/13 09:47:25;;;;;;;;;2.00;2.00;;;;;13.30;73.78;101224.84;4968735;28;45387;-67
2021/11/13 09:49:51;;;;;;;;;6.00;3.00;;;;;13.28;73.65;101224.09;4973633;28;46985;-66
2021/11/13 09:52:17;;;;;;;;;2.67;2.00;;;;;13.26;73.84;101226.03;4974378;28;46134;-68
2021/11/13 09:54:43;;;;;;;;;3.00;3.00;;;;;13.20;74.42;101244.97;4973175;28;45486;-65
2021/11/13 09:57:10;;;;;;;;;3.00;3.00;;;;;13.14;74.93;101241.03;4974767;28;45343;-67
2021/11/13 09:59:36;;;;;;;;;3.00;2.67;;;;;13.12;75.06;101236.81;4974318;28;46123;-66
2021/11/13 10:02:02;;;;;;;;;4.33;2.00;;;;;13.10;75.13;101244.00;4973200;28;46169;-66
2021/11/13 10:04:28;;;;;;;;;3.00;3.00;;;;;13.08;75.06;101236.22;4971743;28;45445;-65
2021/11/13 10:06:53;;;;;;;;;3.33;2.33;;;;;13.11;75.00;101243.06;4972981;28;45485;-67
2021/11/13 10:09:19;;;;;;;;;6.00;4.00;;;;;13.11;74.82;101243.06;4972748;28;46336;-67
2021/11/13 10:11:48;;;;;;;;;4.00;4.00;;;;;13.11;74.74;101243.06;4973438;28;45318;-67
2021/11/13 10:14:14;;;;;;;;;3.67;3.00;;;;;13.09;74.87;101242.31;4975432;28;45511;-67
2021/11/13 10:16:49;;;;;;;;;4.33;4.00;;;;;13.15;75.01;101252.41;4971031;28;45458;-66
2021/11/13 10:19:17;;;;;;;;;7.00;5.33;;;;;13.16;74.74;101243.53;4973889;28;45692;-65
2021/11/13 10:21:46;;;;;;;;;5.00;5.00;;;;;13.22;74.82;101243.06;4975177;28;45505;-65
2021/11/13 10:24:28;;;;;;;;;12.67;9.00;;;;;13.28;74.76;101237.28;4974919;28;45331;-67
2021/11/13 10:26:58;;;;;;;;;7.33;5.00;;;;;13.36;74.57;101240.22;4972604;28;45359;-67
2021/11/13 10:29:36;;;;;;;;;5.00;5.00;;;;;13.43;74.56;101239.72;4975854;28;46346;-66
2021/11/13 10:32:08;;;;;;;;;6.33;3.33;;;;;13.49;74.46;101245.38;4973901;28;45379;-66
2021/11/13 10:34:42;;;;;;;;;9.00;8.67;;;;;13.52;74.07;101239.03;4973978;28;45490;-67
2021/11/13 10:37:18;;;;;;;;;5.67;5.67;;;;;13.56;73.72;101235.19;4973064;28;45371;-67
2021/11/13 10:39:45;;;;;;;;;7.00;5.33;;;;;13.60;73.70;101236.63;4972494;28;45182;-66
2021/11/13 10:42:25;;;;;;;;;6.33;4.67;;;;;13.64;73.51;101235.41;4971524;28;45426;-67
2021/11/13 10:44:58;;;;;;;;;6.00;5.00;;;;;13.65;73.15;101231.81;4974282;28;45417;-66
2021/11/13 10:47:35;;;;;;;;;4.00;4.00;;;;;13.68;73.12;101233.38;4973726;28;45546;-66
2021/11/13 10:50:16;;;;;;;;;6.00;4.00;;;;;13.69;72.97;101225.31;4971177;28;45674;-67
2021/11/13 10:52:58;;;;;;;;;8.00;6.00;;;;;13.74;73.00;101216.19;4972369;27;45377;-66
2021/11/13 10:55:25;;;;;;;;;6.33;5.33;;;;;13.79;72.59;101220.16;4973106;28;45487;-66
2021/11/13 10:57:50;;;;;;;;;10.67;7.00;;;;;13.86;72.73;101220.50;4970600;28;45302;-66
2021/11/13 11:00:17;;;;;;;;;8.33;6.67;;;;;13.88;72.54;101225.66;4971642;28;46873;-67
2021/11/13 11:03:01;;;;;;;;;11.00;8.33;;;;;13.91;72.67;101223.63;4974655;28;45497;-68
2021/11/13 11:05:44;;;;;;;;;7.67;6.33;;;;;13.96;72.30;101226.72;4976397;28;45564;-65
2021/11/13 11:08:29;;;;;;;;;6.33;6.00;;;;;13.99;72.26;101223.81;4972116;28;45623;-68
2021/11/13 11:10:55;;;;;;;;;7.00;7.00;;;;;14.01;72.47;101224.56;4970793;28;46242;-67
2021/11/13 11:13:41;;;;;;;;;6.00;5.00;;;;;14.02;71.62;101225.38;4972287;28;45321;-68
2021/11/13 11:16:24;;;;;;;;;5.00;4.00;;;;;14.00;71.94;101228.16;4975672;28;45517;-67
2021/11/13 11:18:59;;;;;;;;;6.33;6.33;;;;;14.00;71.52;101216.75;4974582;27;45456;-66